sensor_id;sensor_type;location;lat;lon;timestamp;temperature;humidity
41080;DHT22;26826;50.718;7.114;2022-10-26T00:07:24;13.50;99.90
41080;DHT22;26826;50.718;7.114;2022-10-26T00:17:24;13.50;99.90
41080;DHT22;26826;50.718;7.114;2022-10-26T00:27:25;13.50;99.90
41080;DHT22;26826;50.718;7.114;2022-10-26T00:37:25;13.60;99.90
41080;DHT22;26826;50.718;7.114;2022-10-26T00:48:02;13.60;99.90
41080;DHT22;26826;50.718;7.114;2022-10-26T00:58:07;13.70;99.90
41080;DHT22;26826;50.718;7.114;2022-10-26T01:08:09;13.70;99.90
41080;DHT22;26826;50.718;7.114;2022-10-26T01:29:00;13.80;99.90
41080;DHT22;26826;50.718;7.114;2022-10-26T01:39:12;13.90;99.90
41080;DHT22;26826;50.718;7.114;2022-10-26T01:49:16;13.80;99.90
41080;DHT22;26826;50.718;7.114;2022-10-26T01:59:37;13.90;99.90
41080;DHT22;26826;50.718;7.114;2022-10-26T02:19:57;14.00;99.90
41080;DHT22;26826;50.718;7.114;2022-10-26T02:30:00;14.00;99.90
41080;DHT22;26826;50.718;7.114;2022-10-26T02:40:05;14.10;99.90
41080;DHT22;26826;50.718;7.114;2022-10-26T02:50:08;14.00;99.90
41080;DHT22;26826;50.718;7.114;2022-10-26T03:00:12;14.10;99.90
41080;DHT22;26826;50.718;7.114;2022-10-26T03:10:13;14.00;99.90
41080;DHT22;26826;50.718;7.114;2022-10-26T03:20:14;13.90;99.90
41080;DHT22;26826;50.718;7.114;2022-10-26T03:30:14;13.90;99.90
41080;DHT22;26826;50.718;7.114;2022-10-26T03:40:15;13.80;99.90
41080;DHT22;26826;50.718;7.114;2022-10-26T03:50:18;13.80;99.90
41080;DHT22;26826;50.718;7.114;2022-10-26T04:00:19;13.70;99.90
41080;DHT22;26826;50.718;7.114;2022-10-26T04:10:19;13.60;99.90
41080;DHT22;26826;50.718;7.114;2022-10-26T04:20:20;13.60;99.90
41080;DHT22;26826;50.718;7.114;2022-10-26T04:30:21;13.50;99.90
41080;DHT22;26826;50.718;7.114;2022-10-26T04:40:21;13.50;99.90
41080;DHT22;26826;50.718;7.114;2022-10-26T04:50:22;13.50;99.90
41080;DHT22;26826;50.718;7.114;2022-10-26T05:00:22;13.50;99.90
41080;DHT22;26826;50.718;7.114;2022-10-26T05:10:24;13.50;99.90
41080;DHT22;26826;50.718;7.114;2022-10-26T05:20:26;13.50;99.90
41080;DHT22;26826;50.718;7.114;2022-10-26T05:30:30;13.50;99.90
41080;DHT22;26826;50.718;7.114;2022-10-26T05:40:30;13.50;99.90
41080;DHT22;26826;50.718;7.114;2022-10-26T05:50:31;13.50;99.90
41080;DHT22;26826;50.718;7.114;2022-10-26T06:00:32;13.50;99.90
41080;DHT22;26826;50.718;7.114;2022-10-26T06:10:33;13.60;99.90
41080;DHT22;26826;50.718;7.114;2022-10-26T06:21:00;13.60;99.90
41080;DHT22;26826;50.718;7.114;2022-10-26T06:31:02;13.70;99.90
41080;DHT22;26826;50.718;7.114;2022-10-26T06:41:03;13.70;99.90
41080;DHT22;26826;50.718;7.114;2022-10-26T06:51:04;13.80;99.90
41080;DHT22;26826;50.718;7.114;2022-10-26T07:01:10;13.80;99.90
41080;DHT22;26826;50.718;7.114;2022-10-26T07:11:12;13.90;99.90
41080;DHT22;26826;50.718;7.114;2022-10-26T07:21:12;14.00;99.90
41080;DHT22;26826;50.718;7.114;2022-10-26T07:31:12;14.10;99.90
41080;DHT22;26826;50.718;7.114;2022-10-26T07:41:13;14.20;99.90
41080;DHT22;26826;50.718;7.114;2022-10-26T07:51:14;14.20;99.90
41080;DHT22;26826;50.718;7.114;2022-10-26T08:01:15;14.30;99.90
41080;DHT22;26826;50.718;7.114;2022-10-26T08:11:15;14.20;99.90
41080;DHT22;26826;50.718;7.114;2022-10-26T08:21:16;14.20;99.90
41080;DHT22;26826;50.718;7.114;2022-10-26T08:31:17;14.30;99.90
41080;DHT22;26826;50.718;7.114;2022-10-26T08:41:29;14.40;99.90
41080;DHT22;26826;50.718;7.114;2022-10-26T08:51:35;14.70;99.90
41080;DHT22;26826;50.718;7.114;2022-10-26T09:01:37;15.00;99.90
41080;DHT22;26826;50.718;7.114;2022-10-26T09:12:13;15.40;99.90
41080;DHT22;26826;50.718;7.114;2022-10-26T09:22:39;15.60;99.90
41080;DHT22;26826;50.718;7.114;2022-10-26T09:32:45;15.70;99.90
41080;DHT22;26826;50.718;7.114;2022-10-26T09:43:02;16.60;99.90
41080;DHT22;26826;50.718;7.114;2022-10-26T09:53:04;17.30;99.90
41080;DHT22;26826;50.718;7.114;2022-10-26T10:03:21;17.70;99.90
41080;DHT22;26826;50.718;7.114;2022-10-26T10:13:27;18.30;99.90
41080;DHT22;26826;50.718;7.114;2022-10-26T10:33:34;20.00;99.90
41080;DHT22;26826;50.718;7.114;2022-10-26T10:43:35;21.30;99.90
41080;DHT22;26826;50.718;7.114;2022-10-26T10:53:47;22.20;99.90
41080;DHT22;26826;50.718;7.114;2022-10-26T11:24:26;21.60;99.90
41080;DHT22;26826;50.718;7.114;2022-10-26T11:34:43;21.60;99.90
41080;DHT22;26826;50.718;7.114;2022-10-26T11:44:58;22.30;99.90
41080;DHT22;26826;50.718;7.114;2022-10-26T11:55:01;22.20;99.90
41080;DHT22;26826;50.718;7.114;2022-10-26T12:15:47;24.00;99.90
41080;DHT22;26826;50.718;7.114;2022-10-26T12:25:48;25.10;99.90
41080;DHT22;26826;50.718;7.114;2022-10-26T12:35:48;25.70;99.90
41080;DHT22;26826;50.718;7.114;2022-10-26T12:56:13;23.50;99.90
41080;DHT22;26826;50.718;7.114;2022-10-26T13:16:43;23.80;99.90
41080;DHT22;26826;50.718;7.114;2022-10-26T13:37:23;25.70;99.90
41080;DHT22;26826;50.718;7.114;2022-10-26T14:07:57;24.70;99.90
41080;DHT22;26826;50.718;7.114;2022-10-26T14:18:00;24.60;99.90
41080;DHT22;26826;50.718;7.114;2022-10-26T14:28:01;24.50;99.90
41080;DHT22;26826;50.718;7.114;2022-10-26T14:38:11;23.90;99.90
41080;DHT22;26826;50.718;7.114;2022-10-26T14:58:25;23.40;99.90
41080;DHT22;26826;50.718;7.114;2022-10-26T15:08:41;23.20;99.90
41080;DHT22;26826;50.718;7.114;2022-10-26T15:18:45;23.10;99.90
41080;DHT22;26826;50.718;7.114;2022-10-26T15:28:46;22.80;99.90
41080;DHT22;26826;50.718;7.114;2022-10-26T15:38:49;22.30;99.90
41080;DHT22;26826;50.718;7.114;2022-10-26T15:49:00;22.00;99.90
41080;DHT22;26826;50.718;7.114;2022-10-26T15:59:01;21.20;99.90
41080;DHT22;26826;50.718;7.114;2022-10-26T16:09:04;20.70;99.90
41080;DHT22;26826;50.718;7.114;2022-10-26T16:19:05;20.30;99.90
41080;DHT22;26826;50.718;7.114;2022-10-26T16:29:06;20.00;99.90
41080;DHT22;26826;50.718;7.114;2022-10-26T16:39:07;19.60;99.90
41080;DHT22;26826;50.718;7.114;2022-10-26T16:49:09;19.60;99.90
41080;DHT22;26826;50.718;7.114;2022-10-26T16:59:09;19.40;99.90
41080;DHT22;26826;50.718;7.114;2022-10-26T17:09:10;19.00;99.90
41080;DHT22;26826;50.718;7.114;2022-10-26T17:19:10;18.60;99.90
41080;DHT22;26826;50.718;7.114;2022-10-26T17:29:12;18.50;99.90
41080;DHT22;26826;50.718;7.114;2022-10-26T17:39:12;18.50;99.90
41080;DHT22;26826;50.718;7.114;2022-10-26T17:49:13;18.40;99.90
41080;DHT22;26826;50.718;7.114;2022-10-26T17:59:14;18.50;99.90
41080;DHT22;26826;50.718;7.114;2022-10-26T18:09:14;18.40;99.90
41080;DHT22;26826;50.718;7.114;2022-10-26T18:19:15;18.20;99.90
41080;DHT22;26826;50.718;7.114;2022-10-26T18:29:15;18.10;99.90
41080;DHT22;26826;50.718;7.114;2022-10-26T18:39:16;18.10;99.90
41080;DHT22;26826;50.718;7.114;2022-10-26T18:49:17;18.00;99.90
41080;DHT22;26826;50.718;7.114;2022-10-26T18:59:20;17.90;99.90
41080;DHT22;26826;50.718;7.114;2022-10-26T19:09:21;17.70;99.90
41080;DHT22;26826;50.718;7.114;2022-10-26T19:19:21;17.70;99.90
41080;DHT22;26826;50.718;7.114;2022-10-26T19:29:24;17.50;99.90
41080;DHT22;26826;50.718;7.114;2022-10-26T19:39:25;17.50;99.90
41080;DHT22;26826;50.718;7.114;2022-10-26T19:49:27;17.20;99.90
41080;DHT22;26826;50.718;7.114;2022-10-26T19:59:27;16.70;99.90
41080;DHT22;26826;50.718;7.114;2022-10-26T20:09:28;16.50;99.90
41080;DHT22;26826;50.718;7.114;2022-10-26T20:19:28;16.30;99.90
41080;DHT22;26826;50.718;7.114;2022-10-26T20:29:29;16.10;99.90
41080;DHT22;26826;50.718;7.114;2022-10-26T20:39:30;16.00;99.90
41080;DHT22;26826;50.718;7.114;2022-10-26T20:49:31;15.90;99.90
41080;DHT22;26826;50.718;7.114;2022-10-26T20:59:37;15.70;99.90
41080;DHT22;26826;50.718;7.114;2022-10-26T21:09:39;15.50;99.90
41080;DHT22;26826;50.718;7.114;2022-10-26T21:19:39;15.50;99.90
41080;DHT22;26826;50.718;7.114;2022-10-26T21:29:41;15.40;99.90
41080;DHT22;26826;50.718;7.114;2022-10-26T21:39:41;15.30;99.90
41080;DHT22;26826;50.718;7.114;2022-10-26T21:49:42;15.30;99.90
41080;DHT22;26826;50.718;7.114;2022-10-26T21:59:42;15.40;99.90
41080;DHT22;26826;50.718;7.114;2022-10-26T22:09:43;15.30;99.90
41080;DHT22;26826;50.718;7.114;2022-10-26T22:19:43;15.20;99.90
41080;DHT22;26826;50.718;7.114;2022-10-26T22:29:44;15.20;99.90
41080;DHT22;26826;50.718;7.114;2022-10-26T22:39:45;15.20;99.90
41080;DHT22;26826;50.718;7.114;2022-10-26T22:49:45;15.40;99.90
41080;DHT22;26826;50.718;7.114;2022-10-26T22:59:46;15.20;99.90
41080;DHT22;26826;50.718;7.114;2022-10-26T23:20:30;15.00;99.90
41080;DHT22;26826;50.718;7.114;2022-10-26T23:30:31;14.70;99.90
41080;DHT22;26826;50.718;7.114;2022-10-26T23:40:32;14.50;99.90
41080;DHT22;26826;50.718;7.114;2022-10-26T23:50:32;14.60;99.90
